Time;durP1;ratioP1;P1;durP2;ratioP2;P2;SDS_P1;SDS_P2;PMS_P1;PMS_P2;Temp;Humidity;BMP_temperature;BMP_pressure;BME280_temperature;BME280_humidity;BME280_pressure;Samples;Min_cycle;Max_cycle;Signal;HPM_P1;HPM_P2
2022/04/15 00:01:08;;;;;;;12.10;5.47;;;;;;;10.93;45.44;100236.06;3145669;28;20048;-72
2022/04/15 00:02:40;;;;;;;10.90;5.30;;;;;;;10.97;45.53;100249.81;3141492;28;20056;-72
2022/04/15 00:04:11;;;;;;;16.30;5.85;;;;;;;10.96;45.54;100245.53;3145638;28;20426;-72
2022/04/15 00:05:45;;;;;;;12.65;6.10;;;;;;;11.05;45.41;100260.78;3143449;28;20074;-72
2022/04/15 00:07:18;;;;;;;;;;;;;;;11.04;45.29;100261.72;3146040;28;20127;-72
2022/04/15 00:08:50;;;;;;;14.77;6.00;;;;;;;10.97;45.22;100252.44;3142932;28;20396;-72
2022/04/15 00:10:23;;;;;;;17.13;5.70;;;;;;;10.86;45.63;100232.03;3145246;28;20072;-72
2022/04/15 00:11:56;;;;;;;12.63;5.18;;;;;;;11.02;45.53;100260.91;3145185;28;20041;-72
2022/04/15 00:13:29;;;;;;;10.63;5.35;;;;;;;10.67;45.64;100208.44;3144579;28;20432;-72
2022/04/15 00:15:01;;;;;;;17.08;6.65;;;;;;;10.92;45.88;100252.63;3145275;28;20055;-72
2022/04/15 00:16:33;;;;;;;13.70;6.45;;;;;;;10.98;45.97;100261.97;3143757;28;20064;-73
2022/04/15 00:18:05;;;;;;;18.23;6.65;;;;;;;10.97;45.80;100252.44;3144106;28;20060;-72
2022/04/15 00:19:37;;;;;;;14.68;6.78;;;;;;;10.98;45.79;100251.53;3145177;28;20162;-72
2022/04/15 00:21:08;;;;;;;11.52;6.60;;;;;;;11.00;45.81;100252.31;3145407;28;20057;-72
2022/04/15 00:22:42;;;;;;;13.13;6.28;;;;;;;11.00;45.92;100249.69;3140642;28;20121;-72
2022/04/15 00:24:13;;;;;;;12.63;7.40;;;;;;;10.75;45.91;100220.31;3144932;28;20052;-72
2022/04/15 00:25:44;;;;;;;12.57;6.32;;;;;;;10.99;45.96;100253.22;3142873;28;20470;-72
2022/04/15 00:27:16;;;;;;;15.18;6.55;;;;;;;10.88;46.00;100229.34;3142433;28;20071;-72
2022/04/15 00:28:49;;;;;;;18.08;7.15;;;;;;;10.95;46.04;100245.59;3145129;28;20049;-72
2022/04/15 00:30:21;;;;;;;14.18;7.40;;;;;;;10.94;46.00;100247.34;3141041;28;20045;-72
2022/04/15 00:31:53;;;;;;;16.77;6.13;;;;;;;10.87;46.20;100236.31;3143618;28;20151;-71
2022/04/15 00:33:25;;;;;;;14.45;6.47;;;;;;;10.87;46.13;100240.69;3145418;28;20060;-72
2022/04/15 00:34:56;;;;;;;13.65;7.18;;;;;;;10.81;46.13;100235.72;3145162;28;20060;-72
2022/04/15 00:36:29;;;;;;;16.95;6.97;;;;;;;10.86;46.25;100239.00;3143903;28;20056;-72
2022/04/15 00:38:02;;;;;;;17.70;7.18;;;;;;;10.84;46.30;100239.03;3145044;28;20052;-72
2022/04/15 00:39:35;;;;;;;18.80;7.28;;;;;;;10.83;46.25;100241.72;3141534;28;20068;-72
2022/04/15 00:41:07;;;;;;;13.43;7.30;;;;;;;10.81;46.34;100233.94;3145234;28;20553;-72
2022/04/15 00:42:39;;;;;;;16.90;7.95;;;;;;;10.70;46.37;100216.13;3143638;28;20067;-72
2022/04/15 00:44:10;;;;;;;14.95;7.05;;;;;;;10.47;46.32;100177.97;3145069;28;20450;-72
2022/04/15 00:45:42;;;;;;;14.48;7.00;;;;;;;10.82;46.50;100237.41;3144259;28;20525;-72
2022/04/15 00:47:20;;;;;;;20.13;7.40;;;;;;;10.83;46.39;100239.13;3145111;28;20044;-72
2022/04/15 00:48:51;;;;;;;19.23;7.57;;;;;;;10.56;46.55;100196.72;3144345;28;20517;-72
2022/04/15 00:50:25;;;;;;;13.82;7.25;;;;;;;10.60;46.43;100207.00;3145022;28;20056;-72
2022/04/15 00:51:58;;;;;;;22.13;7.80;;;;;;;10.82;46.48;100237.41;3143289;28;20062;-72
2022/04/15 00:53:33;;;;;;;18.63;8.40;;;;;;;10.81;46.51;100239.16;3144836;28;20101;-72
2022/04/15 00:55:06;;;;;;;12.32;7.03;;;;;;;10.80;46.65;100237.47;3144970;28;20603;-71
2022/04/15 00:56:41;;;;;;;18.75;8.60;;;;;;;10.80;46.50;100236.63;3143909;28;20041;-71
2022/04/15 00:58:17;;;;;;;21.02;7.15;;;;;;;10.79;46.65;100245.34;3149219;28;20131;-72
2022/04/15 00:59:50;;;;;;;14.77;7.85;;;;;;;10.73;46.72;100235.16;3140920;28;20087;-72
2022/04/15 01:01:23;;;;;;;15.65;7.70;;;;;;;10.76;46.73;100238.47;3145009;28;20121;-72
2022/04/15 01:02:56;;;;;;;17.00;7.95;;;;;;;10.49;46.78;100198.72;3144944;28;20137;-72
2022/04/15 01:04:32;;;;;;;22.65;8.13;;;;;;;10.72;46.93;100233.47;3143230;28;20539;-72
2022/04/15 01:06:07;;;;;;;16.90;8.60;;;;;;;10.75;47.05;100238.56;3141310;28;20167;-72
2022/04/15 01:07:40;;;;;;;17.52;7.78;;;;;;;10.59;47.39;100213.13;3134586;28;20172;-73
2022/04/15 01:09:15;;;;;;;;;;;;;;;10.70;47.25;100238.72;3133564;28;20102;-73
2022/04/15 01:10:48;;;;;;;19.08;8.82;;;;;;;10.67;47.16;100241.44;3135311;28;19924;-73
2022/04/15 01:12:22;;;;;;;23.47;9.53;;;;;;;10.63;47.18;100235.50;3135986;28;20822;-73
2022/04/15 01:13:59;;;;;;;21.67;9.55;;;;;;;10.62;47.41;100243.41;3134101;28;20654;-74
2022/04/15 01:15:30;;;;;;;21.60;8.77;;;;;;;10.62;47.34;100235.59;3135182;28;20830;-74
2022/04/15 01:17:03;;;;;;;20.00;8.68;;;;;;;10.61;47.62;100232.13;3134242;28;20056;-73
2022/04/15 01:18:36;;;;;;;28.35;9.43;;;;;;;10.40;47.35;100197.31;3133756;28;20129;-73
2022/04/15 01:20:08;;;;;;;20.83;8.93;;;;;;;10.58;47.21;100227.03;3135324;28;20492;-73
2022/04/15 01:21:41;;;;;;;17.27;8.23;;;;;;;10.61;47.33;100231.28;3135491;28;20045;-72
2022/04/15 01:23:14;;;;;;;16.98;8.75;;;;;;;10.60;47.42;100235.63;3134170;28;20052;-73
2022/04/15 01:24:49;;;;;;;20.08;9.70;;;;;;;10.57;47.39;100225.34;3135280;28;20824;-71
2022/04/15 01:26:21;;;;;;;18.13;9.68;;;;;;;10.58;47.41;100229.63;3135121;28;20049;-71
2022/04/15 01:27:54;;;;;;;19.60;9.47;;;;;;;10.51;47.23;100211.72;3130140;28;20087;-70
2022/04/15 01:29:27;;;;;;;22.75;9.38;;;;;;;10.58;47.15;100227.03;3133952;28;20168;-72
2022/04/15 01:30:59;;;;;;;;;;;;;;;10.55;46.95;100229.75;3137985;28;20247;-72
2022/04/15 01:32:30;;;;;;;21.65;10.18;;;;;;;10.37;46.99;100213.06;3137035;28;19936;-70
2022/04/15 01:34:03;;;;;;;22.13;9.25;;;;;;;10.50;47.26;100229.09;3135681;28;20517;-70
2022/04/15 01:35:34;;;;;;;20.63;9.70;;;;;;;10.51;47.07;100241.19;3137398;28;20059;-70
2022/04/15 01:37:06;;;;;;;18.90;9.35;;;;;;;10.30;47.16;100200.34;3135696;28;20056;-70
2022/04/15 01:38:40;;;;;;;22.55;9.85;;;;;;;10.47;47.44;100231.81;3138172;28;20055;-71
2022/04/15 01:40:13;;;;;;;22.75;9.43;;;;;;;10.45;47.35;100228.41;3139329;28;20496;-70
2022/04/15 01:41:45;;;;;;;23.13;9.57;;;;;;;10.38;47.46;100216.50;3138596;28;20339;-70
2022/04/15 01:43:17;;;;;;;26.30;9.63;;;;;;;10.39;47.54;100228.66;3136934;28;20096;-70
2022/04/15 01:44:50;;;;;;;23.52;9.40;;;;;;;10.39;47.54;100232.09;3137690;28;20152;-71
2022/04/15 01:46:22;;;;;;;23.77;9.48;;;;;;;10.39;47.54;100226.88;3136425;28;20059;-71
2022/04/15 01:47:53;;;;;;;20.25;8.75;;;;;;;10.38;47.74;100229.53;3137027;28;20113;-70
2022/04/15 01:49:26;;;;;;;18.85;9.52;;;;;;;10.34;48.06;100223.59;3137028;28;20135;-72
2022/04/15 01:50:58;;;;;;;21.65;9.25;;;;;;;10.36;48.14;100226.16;3137203;28;20091;-71
2022/04/15 01:52:29;;;;;;;20.65;9.32;;;;;;;10.35;48.23;100222.72;3137619;28;20838;-71
2022/04/15 01:54:03;;;;;;;19.95;9.30;;;;;;;10.37;48.02;100223.47;3137368;28;20520;-72
2022/04/15 01:55:35;;;;;;;23.25;10.57;;;;;;;10.39;48.09;100220.84;3137549;28;20512;-71
2022/04/15 01:57:07;;;;;;;27.63;9.23;;;;;;;10.39;48.01;100213.03;3133447;28;20330;-71
2022/04/15 01:58:39;;;;;;;20.98;9.43;;;;;;;10.39;47.98;100220.84;3138183;28;20067;-71
2022/04/15 02:00:11;;;;;;;25.65;9.35;;;;;;;10.38;47.99;100219.13;3137348;28;20096;-71
2022/04/15 02:01:43;;;;;;;19.15;9.23;;;;;;;10.38;48.11;100209.56;3136877;28;20471;-71
2022/04/15 02:03:15;;;;;;;22.85;9.75;;;;;;;10.25;48.32;100197.88;3138062;28;20091;-70
2022/04/15 02:04:47;;;;;;;21.73;8.95;;;;;;;10.35;48.20;100214.91;3135081;28;20131;-70
2022/04/15 02:06:19;;;;;;;24.40;9.35;;;;;;;10.35;48.28;100216.63;3137646;28;20121;-70
2022/04/15 02:07:51;;;;;;;16.83;9.23;;;;;;;10.17;48.31;100186.91;3136303;28;20367;-71
2022/04/15 02:09:25;;;;;;;21.95;9.35;;;;;;;10.31;48.44;100212.44;3137184;28;20063;-72
2022/04/15 02:10:57;;;;;;;20.23;8.68;;;;;;;10.28;48.27;100203.00;3136340;28;20056;-72
2022/04/15 02:12:30;;;;;;;22.17;8.50;;;;;;;10.00;48.66;100164.13;3137178;28;20577;-73
2022/04/15 02:14:03;;;;;;;18.85;8.55;;;;;;;10.24;48.18;100202.25;3136408;28;20049;-71
2022/04/15 02:15:35;;;;;;;17.03;8.97;;;;;;;10.21;48.21;100210.16;3136999;28;20131;-70
2022/04/15 02:17:07;;;;;;;20.77;8.65;;;;;;;10.20;48.27;100199.78;3136881;28;20158;-70
2022/04/15 02:18:40;;;;;;;14.00;8.02;;;;;;;10.20;48.20;100197.19;3132101;28;20135;-71
2022/04/15 02:20:12;;;;;;;19.52;8.48;;;;;;;10.17;47.99;100199.91;3130901;28;20058;-71
2022/04/15 02:21:45;;;;;;;17.35;8.32;;;;;;;10.12;48.01;100197.50;3138788;28;20079;-73
2022/04/15 02:23:17;;;;;;;17.45;8.13;;;;;;;10.11;48.04;100202.75;3137136;28;20473;-72
2022/04/15 02:24:50;;;;;;;17.17;7.82;;;;;;;9.97;48.21;100190.25;3132669;28;20074;-74
2022/04/15 02:26:24;;;;;;;;;;;;;;;10.01;48.11;100204.84;3135935;28;20067;-74
2022/04/15 02:27:57;;;;;;;14.07;7.90;;;;;;;9.96;48.01;100206.75;3133432;28;19977;-74
2022/04/15 02:29:29;;;;;;;14.07;8.40;;;;;;;9.82;48.21;100189.06;3136470;28;20055;-73
2022/04/15 02:31:01;;;;;;;18.17;7.93;;;;;;;9.90;48.18;100206.97;3136714;28;20511;-71
2022/04/15 02:32:33;;;;;;;14.82;7.63;;;;;;;9.86;48.45;100210.59;3137683;28;20052;-71
2022/04/15 02:34:05;;;;;;;16.27;9.23;;;;;;;9.80;48.31;100209.91;3135752;28;20052;-69
2022/04/15 02:35:37;;;;;;;14.55;7.60;;;;;;;9.77;48.38;100210.00;3137994;28;20707;-69
2022/04/15 02:37:08;;;;;;;17.88;7.85;;;;;;;9.77;48.49;100211.78;3137000;28;20056;-70
2022/04/15 02:38:40;;;;;;;17.88;7.45;;;;;;;9.77;48.43;100217.81;3134917;28;20530;-70
2022/04/15 02:40:15;;;;;;;16.02;7.70;;;;;;;9.77;48.41;100212.63;3137591;28;20056;-72
2022/04/15 02:41:46;;;;;;;16.00;7.88;;;;;;;9.77;48.59;100210.00;3136242;28;20068;-72
2022/04/15 02:43:19;;;;;;;18.40;7.45;;;;;;;9.76;48.58;100213.53;3134389;28;20458;-72
2022/04/15 02:44:52;;;;;;;16.30;8.70;;;;;;;9.70;48.47;100198.16;3131569;28;20057;-72
2022/04/15 02:46:24;;;;;;;14.23;7.78;;;;;;;9.76;48.39;100200.53;3137260;28;20067;-70
2022/04/15 02:47:57;;;;;;;12.93;7.43;;;;;;;9.71;48.61;100199.00;3135647;28;20165;-69
2022/04/15 02:49:29;;;;;;;18.45;7.28;;;;;;;9.73;48.79;100202.38;3136243;28;20060;-70
2022/04/15 02:51:03;;;;;;;20.55;7.78;;;;;;;9.59;48.80;100174.25;3135138;28;20056;-71
2022/04/15 02:52:35;;;;;;;;;;;;;;;9.69;48.82;100193.81;3136642;28;20847;-71
2022/04/15 02:54:06;;;;;;;16.77;7.10;;;;;;;9.68;48.81;100197.34;3137025;28;19931;-71
2022/04/15 02:55:39;;;;;;;16.67;7.32;;;;;;;9.65;48.89;100194.84;3132678;28;20564;-70
2022/04/15 02:57:11;;;;;;;21.80;8.95;;;;;;;9.64;49.17;100198.34;3130367;28;20466;-70
2022/04/15 02:58:43;;;;;;;17.73;8.80;;;;;;;9.63;49.11;100196.63;3133615;28;20066;-71
2022/04/15 03:00:16;;;;;;;18.85;8.88;;;;;;;9.59;49.37;100202.88;3135198;28;20084;-71
2022/04/15 03:01:49;;;;;;;15.43;7.43;;;;;;;9.56;49.49;100200.38;3131796;28;20577;-71
2022/04/15 03:03:24;;;;;;;19.40;8.05;;;;;;;9.51;49.56;100203.13;3138540;28;20055;-71
2022/04/15 03:04:56;;;;;;;17.60;7.88;;;;;;;9.37;49.73;100174.13;3134657;28;20122;-71
2022/04/15 03:06:28;;;;;;;16.02;7.40;;;;;;;9.48;49.50;100195.44;3136839;28;20302;-71
2022/04/15 03:08:00;;;;;;;14.55;7.43;;;;;;;9.49;49.11;100189.31;3134034;28;20711;-71
2022/04/15 03:09:32;;;;;;;14.85;7.45;;;;;;;9.53;49.27;100196.13;3135972;28;20170;-71
2022/04/15 03:11:06;;;;;;;14.63;7.88;;;;;;;9.41;49.22;100177.50;3137220;28;20410;-71
2022/04/15 03:12:38;;;;;;;;;;;;;;;9.48;49.51;100194.56;3137777;28;20456;-70
2022/04/15 03:14:10;;;;;;;14.57;6.80;;;;;;;9.44;49.35;100199.03;3136989;28;19924;-71
2022/04/15 03:15:43;;;;;;;18.48;7.07;;;;;;;9.40;49.32;100197.44;3136186;28;20087;-71
2022/04/15 03:17:16;;;;;;;14.45;6.88;;;;;;;9.25;49.45;100179.75;3136352;28;20117;-71
2022/04/15 03:18:48;;;;;;;13.82;7.20;;;;;;;9.33;49.46;100204.59;3131674;28;20060;-70
2022/04/15 03:20:21;;;;;;;17.05;7.03;;;;;;;9.25;49.54;100203.16;3136158;28;20071;-70
2022/04/15 03:21:53;;;;;;;16.90;6.93;;;;;;;9.18;49.85;100205.09;3132044;28;20060;-71
2022/04/15 03:23:25;;;;;;;12.02;7.18;;;;;;;9.17;49.62;100205.13;3134076;28;20310;-71
2022/04/15 03:24:58;;;;;;;12.77;6.43;;;;;;;9.12;49.90;100207.91;3126881;28;20075;-69
2022/04/15 03:26:32;;;;;;;19.33;6.57;;;;;;;9.10;50.06;100212.28;3133699;28;20106;-69
2022/04/15 03:28:04;;;;;;;14.15;6.78;;;;;;;9.11;49.90;100214.84;3132646;28;20052;-70
2022/04/15 03:29:36;;;;;;;14.13;6.93;;;;;;;9.12;49.77;100218.31;3132298;28;20056;-70
2022/04/15 03:31:09;;;;;;;18.35;6.72;;;;;;;9.12;49.86;100215.69;3136790;28;20312;-70
2022/04/15 03:32:48;;;;;;;13.75;6.55;;;;;;;9.10;49.67;100214.91;3138274;28;20059;-70
2022/04/15 03:34:20;;;;;;;15.60;7.65;;;;;;;9.13;49.70;100220.00;3137126;28;20087;-71
2022/04/15 03:35:52;;;;;;;15.02;6.80;;;;;;;8.96;49.61;100191.09;3134611;28;20064;-70
2022/04/15 03:37:25;;;;;;;15.65;6.10;;;;;;;9.04;49.71;100202.94;3136985;28;20051;-72
2022/04/15 03:38:56;;;;;;;14.45;6.68;;;;;;;9.15;49.88;100227.75;3134608;28;20055;-71
2022/04/15 03:40:28;;;;;;;15.65;7.03;;;;;;;9.05;50.01;100214.19;3136343;28;20064;-70
2022/04/15 03:42:02;;;;;;;14.38;7.07;;;;;;;9.09;50.27;100224.44;3135685;28;20605;-70
2022/04/15 03:43:34;;;;;;;14.32;6.55;;;;;;;9.09;49.90;100229.63;3135614;28;20520;-72
2022/04/15 03:45:07;;;;;;;14.05;7.00;;;;;;;8.96;50.03;100209.28;3135371;28;20561;-72
2022/04/15 03:46:40;;;;;;;11.95;6.90;;;;;;;9.06;50.11;100229.75;3131463;28;20372;-71
2022/04/15 03:48:12;;;;;;;13.85;6.97;;;;;;;9.02;50.35;100232.47;3137100;28;20057;-70
2022/04/15 03:49:45;;;;;;;14.65;6.95;;;;;;;9.01;50.26;100229.03;3131182;28;20048;-71
2022/04/15 03:51:18;;;;;;;13.95;7.10;;;;;;;8.99;50.26;100224.78;3135856;28;20147;-71
2022/04/15 03:52:50;;;;;;;14.20;6.82;;;;;;;8.93;50.52;100227.56;3130941;28;20056;-71
2022/04/15 03:54:22;;;;;;;19.33;7.28;;;;;;;8.86;50.81;100222.56;3135457;28;20056;-71
2022/04/15 03:55:54;;;;;;;13.75;7.50;;;;;;;8.86;50.73;100225.16;3132571;28;20464;-72
2022/04/15 03:57:27;;;;;;;20.00;7.35;;;;;;;8.81;50.72;100213.22;3136965;28;20346;-72
2022/04/15 03:58:59;;;;;;;20.40;8.15;;;;;;;8.80;51.09;100220.16;3138161;28;20044;-72
2022/04/15 04:00:31;;;;;;;21.60;8.50;;;;;;;8.77;51.10;100216.81;3136820;28;20063;-72
2022/04/15 04:02:04;;;;;;;17.33;8.60;;;;;;;8.77;51.14;100227.22;3134460;28;20219;-72
2022/04/15 04:03:36;;;;;;;13.00;6.95;;;;;;;8.71;51.26;100224.81;3135164;28;20053;-72
2022/04/15 04:05:08;;;;;;;19.40;8.80;;;;;;;8.73;51.42;100238.59;3136261;28;20052;-72
2022/04/15 04:06:40;;;;;;;19.17;8.38;;;;;;;8.70;51.48;100234.34;3133741;28;20053;-72
2022/04/15 04:08:12;;;;;;;27.58;8.48;;;;;;;8.49;51.59;100202.09;3135364;28;20048;-72
2022/04/15 04:09:44;;;;;;;17.02;8.20;;;;;;;8.69;51.45;100222.25;3133949;28;20052;-71
2022/04/15 04:11:17;;;;;;;18.88;7.35;;;;;;;8.65;51.57;100228.44;3136815;28;20063;-71
2022/04/15 04:12:51;;;;;;;23.45;8.90;;;;;;;8.64;51.72;100227.59;3131553;28;20900;-71
2022/04/15 04:14:23;;;;;;;20.63;7.70;;;;;;;8.59;51.92;100236.41;3135737;28;20867;-71
2022/04/15 04:15:56;;;;;;;19.15;8.35;;;;;;;8.57;51.94;100239.03;3132839;28;20052;-72
2022/04/15 04:17:32;;;;;;;16.77;8.73;;;;;;;8.56;51.93;100241.69;3138426;28;20051;-72
2022/04/15 04:19:05;;;;;;;18.67;8.15;;;;;;;8.57;51.97;100235.59;3138367;28;20048;-72
2022/04/15 04:20:37;;;;;;;;;;;;;;;8.57;51.77;100239.03;3133759;28;20611;-71
2022/04/15 04:22:09;;;;;;;26.98;9.07;;;;;;;8.54;51.87;100225.31;3135098;28;19984;-71
2022/04/15 04:23:41;;;;;;;22.00;7.90;;;;;;;8.55;51.91;100230.47;3138602;28;20073;-72
2022/04/15 04:25:13;;;;;;;20.52;8.52;;;;;;;8.53;51.95;100228.81;3129852;28;20160;-72
2022/04/15 04:26:45;;;;;;;17.80;7.32;;;;;;;8.52;51.97;100234.88;3131787;28;20079;-71
2022/04/15 04:28:19;;;;;;;16.00;7.85;;;;;;;8.51;51.66;100231.44;3135069;28;20056;-70
2022/04/15 04:29:51;;;;;;;17.85;8.10;;;;;;;8.52;51.66;100232.28;3132936;28;20056;-72
2022/04/15 04:31:23;;;;;;;16.70;7.85;;;;;;;8.47;51.76;100223.81;3140924;28;20771;-71
2022/04/15 04:32:58;;;;;;;21.17;8.17;;;;;;;8.52;51.54;100229.69;3134452;28;20048;-72
2022/04/15 04:34:30;;;;;;;19.08;8.55;;;;;;;8.60;51.36;100232.91;3136481;28;20311;-74
2022/04/15 04:36:15;;;;;;;17.63;8.02;;;;;;;8.66;51.15;100236.16;3134486;28;20135;-73
2022/04/15 04:37:47;;;;;;;25.58;8.20;;;;;;;8.57;51.24;100227.81;3135213;28;20536;-70
2022/04/15 04:39:19;;;;;;;28.98;7.93;;;;;;;8.74;50.97;100243.72;3133020;28;20048;-68
2022/04/15 04:40:51;;;;;;;25.92;7.88;;;;;;;8.78;51.17;100245.31;3135710;28;20331;-70
2022/04/15 04:42:22;;;;;;;24.02;7.78;;;;;;;8.82;50.91;100256.50;3140481;28;20481;-68
2022/04/15 04:43:56;;;;;;;124.38;65.95;;;;;;;8.85;50.73;100248.59;3135692;28;20113;-71
2022/04/15 04:45:31;;;;;;;77.93;40.58;;;;;;;8.88;50.78;100246.75;3145117;28;20075;-72
2022/04/15 04:47:03;;;;;;;78.50;37.13;;;;;;;8.77;50.72;100228.06;3141036;28;20052;-69
2022/04/15 04:48:35;;;;;;;28.33;10.88;;;;;;;8.96;50.61;100254.31;3135381;28;20143;-69
2022/04/15 04:50:09;;;;;;;18.10;7.65;;;;;;;8.81;50.44;100219.25;3134585;28;20114;-70
2022/04/15 04:51:42;;;;;;;17.83;7.10;;;;;;;9.04;50.42;100248.88;3135374;28;20425;-68
2022/04/15 04:53:14;;;;;;;14.88;6.68;;;;;;;9.02;50.20;100237.66;3130412;28;20084;-70
2022/04/15 04:54:46;;;;;;;15.48;6.97;;;;;;;9.10;50.15;100251.25;3135483;28;20064;-70
2022/04/15 04:56:19;;;;;;;17.23;6.00;;;;;;;9.13;50.11;100248.56;3139161;28;20052;-68
2022/04/15 04:57:51;;;;;;;16.65;6.57;;;;;;;9.18;50.01;100254.47;3149610;28;20456;-70
2022/04/15 04:59:25;;;;;;;18.13;6.05;;;;;;;9.20;50.05;100250.09;3145245;28;20579;-70
2022/04/15 05:00:57;;;;;;;13.75;5.20;;;;;;;9.23;49.95;100250.00;3147412;28;20056;-69
2022/04/15 05:02:28;;;;;;;12.60;5.50;;;;;;;9.26;49.82;100255.09;3145035;28;20102;-70
2022/04/15 05:04:00;;;;;;;11.82;5.65;;;;;;;9.30;49.57;100250.63;3142754;28;20048;-70
2022/04/15 05:05:32;;;;;;;11.82;5.05;;;;;;;9.32;49.42;100249.69;3139737;28;20055;-70
2022/04/15 05:07:05;;;;;;;13.25;4.82;;;;;;;9.39;49.23;100252.94;3143207;28;20048;-70
2022/04/15 05:08:36;;;;;;;11.93;4.68;;;;;;;9.41;49.27;100252.88;3144963;28;20475;-69
2022/04/15 05:10:09;;;;;;;10.35;4.40;;;;;;;9.46;49.21;100249.22;3145940;28;20044;-70
2022/04/15 05:11:41;;;;;;;13.55;4.13;;;;;;;9.47;49.05;100248.34;3144963;28;20110;-70
2022/04/15 05:13:13;;;;;;;8.48;3.85;;;;;;;9.50;48.81;100253.44;3142947;28;20126;-70
2022/04/15 05:14:46;;;;;;;9.13;4.22;;;;;;;9.55;48.73;100255.84;3140684;28;20052;-68
2022/04/15 05:16:18;;;;;;;;;;;;;;;9.54;48.69;100251.56;3145717;28;20102;-70
2022/04/15 05:17:50;;;;;;;8.82;4.00;;;;;;;9.55;48.67;100259.31;3139429;28;20064;-69
2022/04/15 05:19:22;;;;;;;10.82;4.25;;;;;;;9.59;48.59;100252.28;3139324;28;20110;-69
2022/04/15 05:20:53;;;;;;;12.02;4.38;;;;;;;9.58;48.67;100247.94;3143761;28;20053;-68
2022/04/15 05:22:25;;;;;;;13.13;4.80;;;;;;;9.59;48.72;100254.03;3145747;28;20495;-68
2022/04/15 05:23:57;;;;;;;11.43;4.32;;;;;;;9.59;48.83;100254.03;3145719;28;20147;-75
2022/04/15 05:25:29;;;;;;;12.82;4.03;;;;;;;9.59;48.77;100254.88;3151262;28;20086;-75
2022/04/15 05:27:01;;;;;;;26.27;13.65;;;;;;;9.54;48.72;100248.97;3154015;28;20069;-75
2022/04/15 05:28:35;;;;;;;15.30;5.65;;;;;;;9.63;48.74;100255.59;3155473;28;20059;-66
2022/04/15 05:30:10;;;;;;;7.80;4.28;;;;;;;9.67;48.72;100257.19;3149987;28;20051;-69
2022/04/15 05:31:42;;;;;;;9.40;4.65;;;;;;;9.70;48.67;100251.88;3154620;28;20040;-67
2022/04/15 05:33:14;;;;;;;15.47;4.13;;;;;;;9.77;48.64;100256.00;3149125;28;20473;-68
2022/04/15 05:34:47;;;;;;;11.15;4.30;;;;;;;9.86;48.68;100252.22;3155229;28;20467;-67
2022/04/15 05:36:19;;;;;;;16.50;4.82;;;;;;;9.97;48.46;100260.50;3153449;28;20491;-67
2022/04/15 05:37:50;;;;;;;9.13;4.13;;;;;;;10.04;48.20;100261.97;3151980;28;20056;-67
2022/04/15 05:39:22;;;;;;;14.95;4.60;;;;;;;10.07;48.10;100235.00;3154782;28;20048;-67
2022/04/15 05:40:54;;;;;;;17.17;5.00;;;;;;;10.33;47.78;100252.31;3149512;28;20051;-67
2022/04/15 05:42:28;;;;;;;19.80;4.97;;;;;;;10.44;47.56;100248.41;3151180;28;20045;-67
2022/04/15 05:44:03;;;;;;;14.48;5.20;;;;;;;10.50;47.60;100247.31;3145838;28;20060;-68
2022/04/15 05:45:37;;;;;;;14.15;4.93;;;;;;;10.56;47.75;100249.69;3153334;28;20056;-67
2022/04/15 05:47:09;;;;;;;20.15;4.80;;;;;;;10.55;47.67;100242.75;3151375;28;20128;-69
2022/04/15 05:48:41;;;;;;;83.82;39.90;;;;;;;10.67;47.56;100246.66;3149373;28;20045;-70
2022/04/15 05:50:13;;;;;;;19.50;10.90;;;;;;;10.76;47.48;100243.69;3144020;28;20049;-68
2022/04/15 05:51:46;;;;;;;94.90;52.10;;;;;;;10.87;47.49;100248.50;3144878;28;20106;-68
2022/04/15 05:53:18;;;;;;;43.63;21.85;;;;;;;11.02;47.19;100247.03;3144985;28;20486;-66
2022/04/15 05:54:50;;;;;;;15.90;5.85;;;;;;;11.10;47.03;100245.00;3144621;28;20060;-67
2022/04/15 05:56:22;;;;;;;15.15;5.05;;;;;;;11.24;46.64;100245.28;3138898;28;20405;-68
2022/04/15 05:57:54;;;;;;;14.23;4.95;;;;;;;11.39;46.54;100241.19;3141618;28;20075;-67
2022/04/15 05:59:49;;;;;;;13.13;4.72;;;;;;;11.50;45.98;100244.19;3144894;28;20049;-66
2022/04/15 06:01:23;;;;;;;10.77;3.90;;;;;;;11.68;45.58;100241.72;3116239;28;20045;-65
2022/04/15 06:02:55;;;;;;;8.90;4.05;;;;;;;11.81;45.20;100248.13;3144682;28;20053;-65
2022/04/15 06:04:26;;;;;;;11.50;4.22;;;;;;;11.95;45.19;100240.56;3142163;28;20599;-66
2022/04/15 06:05:58;;;;;;;12.75;4.30;;;;;;;12.08;44.89;100243.47;3144796;28;20102;-66
2022/04/15 06:07:30;;;;;;;13.02;4.35;;;;;;;12.20;44.71;100240.31;3144039;28;20129;-67
2022/04/15 06:09:02;;;;;;;10.80;4.10;;;;;;;12.25;44.38;100227.06;3144720;28;20048;-66
2022/04/15 06:10:34;;;;;;;10.70;4.13;;;;;;;12.24;44.16;100207.91;3150721;28;20073;-71
2022/04/15 06:12:07;;;;;;;9.38;4.45;;;;;;;12.45;43.93;100234.84;3144483;28;20131;-68
2022/04/15 06:13:46;;;;;;;14.80;4.60;;;;;;;12.60;43.59;100240.25;3144649;28;20105;-65
2022/04/15 06:15:17;;;;;;;8.15;4.07;;;;;;;12.62;43.09;100238.44;3140458;28;20052;-69
2022/04/15 06:16:52;;;;;;;10.48;3.75;;;;;;;12.66;43.15;100243.44;3149233;28;20056;-68
2022/04/15 06:18:24;;;;;;;10.18;3.75;;;;;;;12.64;42.92;100229.59;3147478;28;20052;-70
2022/04/15 06:19:56;;;;;;;13.90;4.55;;;;;;;12.68;42.88;100241.59;3145731;28;20374;-69
2022/04/15 06:21:28;;;;;;;10.07;4.35;;;;;;;12.71;42.62;100235.38;3148209;28;20079;-69
2022/04/15 06:23:00;;;;;;;8.18;4.00;;;;;;;12.68;42.38;100235.53;3147104;28;20052;-69
2022/04/15 06:24:32;;;;;;;11.13;4.15;;;;;;;12.68;42.38;100236.38;3149865;28;20049;-71
2022/04/15 06:26:04;;;;;;;15.90;4.65;;;;;;;12.74;42.34;100233.47;3146209;28;20153;-69
2022/04/15 06:27:36;;;;;;;9.90;3.85;;;;;;;12.81;42.18;100236.66;3139029;28;20074;-72
2022/04/15 06:29:07;;;;;;;13.80;4.63;;;;;;;12.96;41.94;100238.53;3146377;28;20057;-71
2022/04/15 06:30:40;;;;;;;10.30;4.32;;;;;;;13.11;41.76;100236.94;3146713;28;20060;-72
2022/04/15 06:32:13;;;;;;;9.65;4.32;;;;;;;13.22;41.45;100231.16;3144001;28;20158;-68
2022/04/15 06:33:45;;;;;;;10.93;4.35;;;;;;;13.37;41.02;100235.69;3142016;28;20060;-69
2022/04/15 06:35:17;;;;;;;14.70;4.50;;;;;;;13.50;40.79;100235.09;3144374;28;20058;-68
2022/04/15 06:36:49;;;;;;;12.05;4.68;;;;;;;13.57;40.62;100241.69;3146534;28;20048;-68
2022/04/15 06:38:20;;;;;;;13.15;4.30;;;;;;;13.64;40.35;100235.25;3146000;28;20445;-67
2022/04/15 06:39:52;;;;;;;12.02;4.85;;;;;;;13.76;40.27;100239.84;3146487;28;20045;-67
2022/04/15 06:41:24;;;;;;;16.00;4.78;;;;;;;13.86;40.23;100238.44;3144925;28;20538;-67
2022/04/15 06:42:56;;;;;;;22.60;4.18;;;;;;;13.92;39.74;100233.81;3146435;28;20101;-67
2022/04/15 06:44:27;;;;;;;14.13;4.07;;;;;;;13.99;38.92;100240.41;3144971;28;20521;-67
2022/04/15 06:46:00;;;;;;;11.15;3.28;;;;;;;13.94;38.95;100237.19;3138794;28;20048;-68
2022/04/15 06:47:33;;;;;;;9.48;3.28;;;;;;;13.93;38.41;100230.25;3148746;28;20063;-69
2022/04/15 06:49:05;;;;;;;;;;;;;;;13.93;38.01;100232.88;3141855;28;20406;-66
2022/04/15 06:50:37;;;;;;;11.60;3.10;;;;;;;13.94;37.80;100230.19;3146480;28;19928;-66
2022/04/15 06:52:09;;;;;;;10.90;3.90;;;;;;;14.00;37.97;100221.16;3141986;28;20110;-70
2022/04/15 06:53:41;;;;;;;9.00;3.35;;;;;;;14.14;37.71;100231.78;3146163;28;20045;-73
2022/04/15 06:55:13;;;;;;;8.75;2.80;;;;;;;14.08;37.28;100206.75;3144619;28;20048;-71
2022/04/15 06:56:45;;;;;;;9.93;2.60;;;;;;;14.20;37.21;100207.88;3146332;28;20048;-76
2022/04/15 06:58:17;;;;;;;9.05;2.95;;;;;;;14.40;37.27;100217.25;3143471;28;20053;-73
2022/04/15 06:59:49;;;;;;;9.77;3.10;;;;;;;14.51;36.83;100220.16;3145416;28;20044;-70
2022/04/15 07:01:21;;;;;;;7.10;2.70;;;;;;;14.56;36.22;100214.69;3146295;28;20382;-69
2022/04/15 07:02:55;;;;;;;7.07;2.70;;;;;;;14.59;36.04;100213.69;3146304;28;20102;-72
2022/04/15 07:04:27;;;;;;;9.45;3.28;;;;;;;14.67;36.36;100214.06;3146535;28;20334;-71
2022/04/15 07:05:59;;;;;;;19.23;4.15;;;;;;;14.74;36.46;100212.81;3144000;28;20106;-68
2022/04/15 07:07:31;;;;;;;6.18;3.05;;;;;;;14.84;36.15;100215.75;3146208;28;20479;-67
2022/04/15 07:09:02;;;;;;;15.73;3.35;;;;;;;14.90;36.08;100216.25;3143651;28;20049;-68
2022/04/15 07:10:34;;;;;;;10.82;3.38;;;;;;;14.94;35.94;100216.94;3145943;28;20067;-71